Time;durP1;ratioP1;P1;durP2;ratioP2;P2;SDS_P1;SDS_P2;PMS_P1;PMS_P2;Temp;Humidity;BMP_temperature;BMP_pressure;BME280_temperature;BME280_humidity;BME280_pressure;Samples;Min_cycle;Max_cycle;Signal;HPM_P1;HPM_P2
2023/04/29 00:00:10;;;;;;;24.60;12.73;;;;;;;9.03;100.00;101385.66;5093131;28;20056;-84
2023/04/29 00:02:35;;;;;;;23.02;12.20;;;;;;;9.02;100.00;101383.91;5092419;28;20072;-85
2023/04/29 00:05:03;;;;;;;22.50;11.27;;;;;;;9.00;100.00;101380.50;5092981;28;20012;-85
2023/04/29 00:07:29;;;;;;;20.98;10.32;;;;;;;9.02;100.00;101386.50;5092225;28;20020;-83
2023/04/29 00:09:54;;;;;;;20.93;9.60;;;;;;;9.00;100.00;101388.25;5092989;28;20027;-84
2023/04/29 00:12:19;;;;;;;22.37;10.47;;;;;;;8.98;100.00;101394.28;5092867;28;20028;-85
2023/04/29 00:14:45;;;;;;;23.60;11.73;;;;;;;8.98;100.00;101390.00;5092610;28;20008;-84
2023/04/29 00:17:10;;;;;;;21.13;9.97;;;;;;;8.94;100.00;101391.72;5074315;28;20036;-85
2023/04/29 00:19:35;;;;;;;24.60;12.47;;;;;;;8.92;100.00;101393.44;5072512;28;20112;-85
2023/04/29 00:22:01;;;;;;;21.33;10.97;;;;;;;8.92;100.00;101397.72;5072154;28;20020;-85
2023/04/29 00:24:26;;;;;;;21.87;10.90;;;;;;;8.90;100.00;101394.28;5072512;28;20029;-84
2023/04/29 00:26:52;;;;;;;24.23;12.57;;;;;;;8.89;100.00;101397.75;5072845;28;20024;-84
2023/04/29 00:29:17;;;;;;;24.17;11.77;;;;;;;8.88;100.00;101403.78;5071863;28;20024;-84
2023/04/29 00:31:43;;;;;;;21.20;10.80;;;;;;;8.87;100.00;101404.66;5072391;28;20111;-84
2023/04/29 00:34:08;;;;;;;25.77;14.37;;;;;;;8.85;100.00;101406.38;5072937;28;20025;-85
2023/04/29 00:36:34;;;;;;;24.80;12.87;;;;;;;8.80;100.00;101407.22;5071807;28;20029;-85
2023/04/29 00:39:02;;;;;;;23.03;11.77;;;;;;;8.80;100.00;101406.38;5072817;28;20024;-85
2023/04/29 00:41:29;;;;;;;21.80;11.20;;;;;;;8.78;100.00;101419.28;5071212;28;20036;-84
2023/04/29 00:43:54;;;;;;;22.25;11.68;;;;;;;8.75;100.00;101418.41;5071700;28;20048;-85
2023/04/29 00:46:23;;;;;;;22.17;12.07;;;;;;;8.71;100.00;101411.53;5072777;28;20119;-85
2023/04/29 00:48:48;;;;;;;19.90;10.27;;;;;;;8.71;100.00;101403.78;5076796;28;20040;-85
2023/04/29 00:51:16;;;;;;;19.83;10.03;;;;;;;8.74;100.00;101420.16;5075894;28;20037;-85
2023/04/29 00:53:42;;;;;;;19.10;9.38;;;;;;;8.74;100.00;101414.97;5076186;28;20067;-85
2023/04/29 00:56:07;;;;;;;21.33;11.77;;;;;;;8.71;100.00;101412.38;5076680;28;20028;-85
2023/04/29 00:58:34;;;;;;;22.33;12.07;;;;;;;8.73;100.00;101423.59;5083720;28;20028;-85
2023/04/29 01:01:06;;;;;;;24.67;13.98;;;;;;;8.67;100.00;101422.72;5096807;28;20020;-84
2023/04/29 01:03:31;;;;;;;21.80;12.13;;;;;;;8.64;100.00;101424.44;5096285;28;20028;-84
2023/04/29 01:06:12;;;;;;;21.27;11.77;;;;;;;8.63;100.00;101421.88;5095891;28;20043;-84
2023/04/29 01:09:18;;;;;;;29.88;18.92;;;;;;;8.55;100.00;101428.75;5096201;28;20020;-84
2023/04/29 01:12:02;;;;;;;;;;;;;;;8.55;100.00;101433.94;5095621;28;20031;-85
2023/04/29 01:14:31;;;;;;;25.13;15.02;;;;;;;8.53;100.00;101427.88;5095857;28;19920;-85
2023/04/29 01:17:01;;;;;;;25.55;14.68;;;;;;;8.52;100.00;101433.91;5096085;28;20026;-85
2023/04/29 01:19:37;;;;;;;22.55;12.38;;;;;;;8.49;100.00;101437.38;5095502;28;20073;-84
2023/04/29 01:22:02;;;;;;;23.08;12.55;;;;;;;8.48;100.00;101440.81;5096178;28;20028;-85
2023/04/29 01:24:27;;;;;;;22.33;12.10;;;;;;;8.47;100.00;101433.88;5096089;28;20028;-84
2023/04/29 01:27:01;;;;;;;24.47;13.60;;;;;;;8.46;100.00;101440.75;5095453;28;20031;-85
2023/04/29 01:29:43;;;;;;;25.70;13.90;;;;;;;8.46;100.00;101445.91;5086668;28;20041;-84
2023/04/29 01:32:16;;;;;;;24.10;14.00;;;;;;;8.45;100.00;101446.78;5075222;28;20032;-84
2023/04/29 01:35:10;;;;;;;22.00;11.73;;;;;;;8.46;100.00;101448.50;5075652;28;20032;-85
2023/04/29 01:37:56;;;;;;;22.92;12.32;;;;;;;8.47;100.00;101449.38;5075242;28;20040;-85
2023/04/29 01:40:29;;;;;;;25.75;15.35;;;;;;;8.44;100.00;101455.44;5074901;28;20044;-84
2023/04/29 01:43:03;;;;;;;22.60;11.85;;;;;;;8.45;100.00;101451.94;5075582;28;20059;-84
2023/04/29 01:45:31;;;;;;;21.15;11.10;;;;;;;8.49;100.00;101451.16;5075016;28;20091;-85
2023/04/29 01:47:58;;;;;;;24.52;14.38;;;;;;;8.46;100.00;101448.50;5074716;28;20043;-85
2023/04/29 01:50:23;;;;;;;24.95;14.50;;;;;;;8.46;100.00;101452.84;5074797;28;20032;-84
2023/04/29 01:52:49;;;;;;;23.03;12.87;;;;;;;8.47;100.00;101449.38;5075276;28;20025;-85
2023/04/29 01:55:14;;;;;;;22.97;11.93;;;;;;;8.48;100.00;101456.31;5074473;28;20111;-85
2023/04/29 01:57:39;;;;;;;21.23;11.37;;;;;;;8.46;100.00;101450.25;5074628;28;20397;-85
2023/04/29 02:00:05;;;;;;;22.43;11.70;;;;;;;8.46;100.00;101453.69;5074356;28;20518;-85
2023/04/29 02:02:31;;;;;;;21.23;11.23;;;;;;;8.48;100.00;101454.59;5074766;28;20070;-84
2023/04/29 02:04:56;;;;;;;20.23;10.13;;;;;;;8.49;100.00;101466.66;5075059;28;20430;-85
2023/04/29 02:07:21;;;;;;;20.17;10.77;;;;;;;8.48;100.00;101462.34;5074092;28;20032;-84
2023/04/29 02:09:47;;;;;;;19.67;10.37;;;;;;;8.48;100.00;101467.53;5074880;28;20033;-84
2023/04/29 02:12:12;;;;;;;23.50;13.27;;;;;;;8.47;100.00;101470.97;5076005;28;20097;-85
2023/04/29 02:14:37;;;;;;;23.57;12.20;;;;;;;8.45;100.00;101467.47;5073994;28;20071;-84
2023/04/29 02:17:02;;;;;;;20.10;10.47;;;;;;;8.49;100.00;101471.84;5074682;28;20112;-85
2023/04/29 02:19:28;;;;;;;20.10;9.60;;;;;;;8.47;100.00;101476.13;5074678;28;20055;-84
2023/04/29 02:21:53;;;;;;;20.43;9.83;;;;;;;8.49;100.00;101477.00;5074075;28;20481;-85
2023/04/29 02:24:18;;;;;;;19.43;9.17;;;;;;;8.50;100.00;101478.75;5074981;28;20031;-85
2023/04/29 02:26:43;;;;;;;19.87;9.83;;;;;;;8.49;100.00;101479.59;5074653;28;20525;-84
2023/04/29 02:29:09;;;;;;;19.30;9.13;;;;;;;8.52;100.00;101480.47;5074061;28;20033;-85
2023/04/29 02:31:34;;;;;;;20.87;10.80;;;;;;;8.53;100.00;101490.81;5074364;28;20067;-85
2023/04/29 02:34:00;;;;;;;20.33;9.67;;;;;;;8.50;100.00;101485.63;5074531;28;20028;-84
2023/04/29 02:36:25;;;;;;;19.27;9.00;;;;;;;8.51;100.00;101492.53;5073459;28;20024;-84
2023/04/29 02:38:54;;;;;;;18.23;8.30;;;;;;;8.52;100.00;101493.41;5074297;28;20028;-85
2023/04/29 02:41:19;;;;;;;21.17;9.40;;;;;;;8.48;100.00;101498.56;5074509;28;20048;-84
2023/04/29 02:43:45;;;;;;;22.63;10.93;;;;;;;8.46;100.00;101499.41;5073228;28;20109;-84
2023/04/29 02:46:10;;;;;;;22.37;11.10;;;;;;;8.46;100.00;101510.59;5074343;28;20012;-84
2023/04/29 02:48:35;;;;;;;20.30;9.77;;;;;;;8.47;100.00;101516.66;5073870;28;20023;-85
2023/04/29 02:51:01;;;;;;;19.83;9.57;;;;;;;8.44;100.00;101511.44;5073333;28;20028;-84
2023/04/29 02:53:26;;;;;;;23.07;12.27;;;;;;;8.47;100.00;101514.06;5073795;28;20024;-85
2023/04/29 02:55:51;;;;;;;22.43;11.70;;;;;;;8.46;100.00;101520.09;5074956;28;20056;-84
2023/04/29 02:58:17;;;;;;;22.23;11.00;;;;;;;8.44;100.00;101519.22;5073473;28;20032;-85
2023/04/29 03:00:42;;;;;;;19.20;9.17;;;;;;;8.45;100.00;101519.22;5073702;28;20107;-85
2023/04/29 03:03:08;;;;;;;19.90;9.57;;;;;;;8.44;100.00;101517.50;5073683;28;20081;-85
2023/04/29 03:05:34;;;;;;;20.23;9.90;;;;;;;8.42;100.00;101523.50;5073212;28;20029;-84
2023/04/29 03:07:59;;;;;;;19.67;9.10;;;;;;;8.42;100.00;101529.56;5073881;28;20031;-85
2023/04/29 03:10:24;;;;;;;19.63;9.67;;;;;;;8.39;100.00;101521.78;5072230;28;20028;-84
2023/04/29 03:12:50;;;;;;;21.90;11.33;;;;;;;8.39;100.00;101529.53;5073945;28;20107;-84
2023/04/29 03:15:15;;;;;;;21.97;10.97;;;;;;;8.35;100.00;101520.91;5073550;28;20029;-85
2023/04/29 03:17:41;;;;;;;20.70;10.20;;;;;;;8.38;100.00;101534.72;5072619;28;20024;-86
2023/04/29 03:20:09;;;;;;;19.87;9.83;;;;;;;8.34;100.00;101532.09;5073446;28;20039;-85
2023/04/29 03:22:34;;;;;;;18.25;8.98;;;;;;;8.33;100.00;101519.19;5073421;28;20045;-85
2023/04/29 03:24:59;;;;;;;18.03;8.50;;;;;;;8.40;100.00;101539.03;5072623;28;20440;-84
2023/04/29 03:27:25;;;;;;;16.97;7.97;;;;;;;8.40;100.00;101544.22;5073241;28;20485;-85
2023/04/29 03:29:50;;;;;;;16.50;7.40;;;;;;;8.38;100.00;101543.31;5073363;28;20074;-84
2023/04/29 03:32:15;;;;;;;13.40;6.20;;;;;;;8.40;100.00;101546.78;5072732;28;20033;-85
2023/04/29 03:34:40;;;;;;;13.30;6.03;;;;;;;8.42;100.00;101550.25;5072678;28;20174;-85
2023/04/29 03:37:06;;;;;;;13.30;5.93;;;;;;;8.43;100.00;101549.41;5073549;28;20032;-84
2023/04/29 03:39:31;;;;;;;13.40;5.73;;;;;;;8.43;100.00;101552.00;5072100;28;20029;-84
2023/04/29 03:42:03;;;;;;;11.57;5.20;;;;;;;8.40;100.00;101546.78;5073121;28;20020;-85
2023/04/29 03:44:29;;;;;;;10.75;4.95;;;;;;;8.44;100.00;101555.44;5072590;28;20040;-84
2023/04/29 03:46:54;;;;;;;13.70;6.23;;;;;;;8.43;100.00;101551.09;5072830;28;20029;-85
2023/04/29 03:49:19;;;;;;;11.77;5.57;;;;;;;8.35;100.00;101541.59;5072769;28;20036;-85
2023/04/29 03:51:45;;;;;;;12.30;4.80;;;;;;;8.44;100.00;101556.31;5073172;28;20040;-85
2023/04/29 03:54:11;;;;;;;10.53;4.80;;;;;;;8.42;100.00;101555.44;5072413;28;20032;-84
2023/04/29 03:56:40;;;;;;;9.43;4.50;;;;;;;8.40;100.00;101546.78;5072860;28;20052;-84
2023/04/29 03:59:06;;;;;;;8.48;4.32;;;;;;;8.47;100.00;101558.91;5073123;28;20073;-85
2023/04/29 04:01:31;;;;;;;8.53;4.23;;;;;;;8.48;100.00;101547.72;5071926;28;20060;-84
2023/04/29 04:03:56;;;;;;;7.97;3.90;;;;;;;8.51;100.00;101559.78;5073160;28;20039;-85
2023/04/29 04:06:22;;;;;;;7.87;4.03;;;;;;;8.48;100.00;101555.47;5072914;28;20074;-84
2023/04/29 04:08:47;;;;;;;7.37;3.87;;;;;;;8.54;100.00;101570.16;5072373;28;20384;-84
2023/04/29 04:11:14;;;;;;;8.60;3.87;;;;;;;8.54;100.00;101565.00;5072872;28;20033;-84
2023/04/29 04:13:41;;;;;;;8.65;4.13;;;;;;;8.55;100.00;101566.72;5071886;28;20064;-84
2023/04/29 04:16:07;;;;;;;9.80;4.10;;;;;;;8.54;100.00;101570.16;5072632;28;20024;-85
2023/04/29 04:18:32;;;;;;;8.70;4.23;;;;;;;8.51;100.00;101572.72;5072468;28;20025;-85
2023/04/29 04:21:04;;;;;;;7.33;3.83;;;;;;;8.56;100.00;101577.94;5072123;28;20086;-84
2023/04/29 04:23:29;;;;;;;7.50;3.72;;;;;;;8.51;100.00;101572.72;5072531;28;20028;-85
2023/04/29 04:25:57;;;;;;;7.07;3.90;;;;;;;8.56;100.00;101575.34;5072738;28;20542;-85
2023/04/29 04:28:22;;;;;;;7.95;4.00;;;;;;;8.54;100.00;101583.09;5071800;28;20024;-85
2023/04/29 04:30:48;;;;;;;6.47;3.40;;;;;;;8.57;100.00;101580.53;5072668;28;20465;-85
2023/04/29 04:33:14;;;;;;;6.33;3.50;;;;;;;8.57;100.00;101588.31;5072825;28;20020;-85
2023/04/29 04:35:40;;;;;;;5.65;3.20;;;;;;;8.58;100.00;101594.34;5071647;28;20036;-84
2023/04/29 04:38:05;;;;;;;5.73;3.10;;;;;;;8.57;100.00;101592.59;5072746;28;20020;-85
2023/04/29 04:40:30;;;;;;;5.80;3.30;;;;;;;8.57;100.00;101603.81;5072232;28;20436;-85
2023/04/29 04:42:55;;;;;;;6.67;3.40;;;;;;;8.57;100.00;101590.91;5071852;28;20074;-84
2023/04/29 04:45:21;;;;;;;8.43;4.20;;;;;;;8.59;100.00;101602.13;5071885;28;20041;-85
2023/04/29 04:47:46;;;;;;;7.97;3.90;;;;;;;8.59;100.00;101607.28;5072403;28;20078;-85
2023/04/29 04:50:11;;;;;;;8.60;4.37;;;;;;;8.60;100.00;101605.56;5071922;28;20020;-85
2023/04/29 04:52:36;;;;;;;8.40;4.27;;;;;;;8.62;100.00;101614.19;5072115;28;20469;-84
2023/04/29 04:55:02;;;;;;;8.40;4.00;;;;;;;8.58;100.00;101615.91;5072560;28;20017;-84
2023/04/29 04:57:27;;;;;;;8.23;4.40;;;;;;;8.62;100.00;101628.00;5071428;28;20434;-84
2023/04/29 04:59:53;;;;;;;7.97;3.90;;;;;;;8.60;100.00;101634.03;5072626;28;20408;-84
2023/04/29 05:02:18;;;;;;;7.00;3.70;;;;;;;8.62;100.00;101646.09;5072308;28;20027;-84
2023/04/29 05:04:43;;;;;;;5.43;3.40;;;;;;;8.58;100.00;101633.13;5071449;28;20033;-84
2023/04/29 05:07:09;;;;;;;6.17;3.53;;;;;;;8.63;100.00;101641.81;5072503;28;20021;-85
2023/04/29 05:09:34;;;;;;;6.23;3.37;;;;;;;8.60;100.00;101636.59;5072118;28;20048;-85
2023/04/29 05:12:00;;;;;;;6.90;3.80;;;;;;;8.61;100.00;101640.94;5071491;28;20021;-84
2023/04/29 05:14:28;;;;;;;8.33;3.83;;;;;;;8.60;100.00;101634.03;5079471;28;20016;-85
2023/04/29 05:16:58;;;;;;;7.47;3.50;;;;;;;8.62;100.00;101645.25;5092339;28;20054;-84
2023/04/29 05:19:23;;;;;;;5.65;3.33;;;;;;;8.60;100.00;101650.44;5092389;28;20024;-85
2023/04/29 05:21:49;;;;;;;5.57;3.13;;;;;;;8.57;100.00;101649.53;5092461;28;20016;-84
2023/04/29 05:24:14;;;;;;;6.60;3.30;;;;;;;8.58;100.00;101648.66;5091855;28;20526;-84
2023/04/29 05:26:42;;;;;;;6.17;3.40;;;;;;;8.58;100.00;101652.13;5092263;28;20044;-85
2023/04/29 05:29:07;;;;;;;7.53;3.70;;;;;;;8.55;100.00;101661.59;5092332;28;20031;-85
2023/04/29 05:31:32;;;;;;;6.67;3.70;;;;;;;8.50;100.00;101664.13;5091103;28;20028;-85
2023/04/29 05:33:58;;;;;;;9.33;4.43;;;;;;;8.52;100.00;101666.75;5095127;28;20103;-85
2023/04/29 05:36:23;;;;;;;6.73;3.73;;;;;;;8.50;100.00;101662.44;5095775;28;20020;-84
2023/04/29 05:38:48;;;;;;;6.30;3.60;;;;;;;8.53;100.00;101671.06;5095199;28;20028;-85
2023/04/29 05:41:14;;;;;;;7.03;3.73;;;;;;;8.55;100.00;101670.22;5095306;28;20032;-85
2023/04/29 05:43:39;;;;;;;7.70;3.90;;;;;;;8.52;100.00;101669.34;5094916;28;20055;-84
2023/04/29 05:46:05;;;;;;;11.23;5.23;;;;;;;8.52;100.00;101677.09;5095322;28;20365;-84
2023/04/29 05:48:30;;;;;;;8.90;4.57;;;;;;;8.51;100.00;101678.81;5095606;28;20049;-85
2023/04/29 05:50:55;;;;;;;9.27;4.50;;;;;;;8.53;100.00;101681.44;5095611;28;20150;-85
2023/04/29 05:53:21;;;;;;;8.07;4.13;;;;;;;8.54;100.00;101688.34;5094721;28;20085;-85
2023/04/29 05:55:46;;;;;;;6.60;3.57;;;;;;;8.55;100.00;101684.91;5093859;28;20020;-84
2023/04/29 05:58:12;;;;;;;5.77;3.17;;;;;;;8.53;100.00;101686.59;5095410;28;20028;-84
2023/04/29 06:00:38;;;;;;;4.93;3.00;;;;;;;8.55;100.00;101696.09;5094603;28;20176;-84
2023/04/29 06:03:12;;;;;;;6.00;3.33;;;;;;;8.55;100.00;101698.69;5095362;28;20019;-84
2023/04/29 06:05:38;;;;;;;6.65;3.50;;;;;;;8.59;100.00;101707.31;5095063;28;20361;-84
2023/04/29 06:08:04;;;;;;;7.27;4.00;;;;;;;8.61;100.00;101714.22;5094666;28;20031;-84
2023/04/29 06:10:30;;;;;;;6.75;3.90;;;;;;;8.60;100.00;101717.72;5094877;28;20020;-84
2023/04/29 06:12:56;;;;;;;9.27;4.25;;;;;;;8.62;100.00;101717.69;5095390;28;20418;-85
2023/04/29 06:15:21;;;;;;;6.50;3.60;;;;;;;8.63;100.00;101717.69;5094084;28;20020;-85
2023/04/29 06:17:49;;;;;;;6.47;3.80;;;;;;;8.62;100.00;101718.56;5095441;28;20045;-85
2023/04/29 06:20:14;;;;;;;6.53;3.78;;;;;;;8.64;100.00;101724.63;5094443;28;20035;-84
2023/04/29 06:22:40;;;;;;;6.80;3.83;;;;;;;8.65;100.00;101718.59;5094661;28;20016;-84
2023/04/29 06:25:06;;;;;;;8.07;4.23;;;;;;;8.64;100.00;101716.00;5094914;28;20028;-84
2023/04/29 06:27:31;;;;;;;9.33;4.60;;;;;;;8.65;100.00;101725.50;5093792;28;20432;-84
2023/04/29 06:29:56;;;;;;;7.03;3.93;;;;;;;8.68;100.00;101725.50;5094965;28;20078;-85
2023/04/29 06:32:22;;;;;;;8.73;4.40;;;;;;;8.69;100.00;101729.81;5094808;28;20020;-85
2023/04/29 06:34:47;;;;;;;8.10;4.60;;;;;;;8.74;100.00;101735.91;5093938;28;20360;-84
2023/04/29 06:37:13;;;;;;;9.10;4.50;;;;;;;8.79;100.00;101741.97;5094505;28;20107;-85
2023/04/29 06:39:38;;;;;;;6.23;3.90;;;;;;;8.86;100.00;101752.38;5094726;28;20447;-84
2023/04/29 06:42:03;;;;;;;10.23;5.07;;;;;;;8.86;100.00;101748.03;5094011;28;20032;-85
2023/04/29 06:44:29;;;;;;;15.30;6.90;;;;;;;8.85;100.00;101745.47;5093440;28;20044;-85
2023/04/29 06:46:54;;;;;;;13.43;6.10;;;;;;;8.89;100.00;101755.00;5094776;28;20024;-85
2023/04/29 06:49:20;;;;;;;11.80;5.30;;;;;;;8.91;100.00;101755.84;5092132;28;20028;-84
2023/04/29 06:51:46;;;;;;;9.85;4.68;;;;;;;9.00;100.00;101762.81;5077840;28;20082;-87
2023/04/29 06:54:11;;;;;;;8.67;4.37;;;;;;;9.07;100.00;101769.75;5094494;28;20040;-87
2023/04/29 06:56:36;;;;;;;11.83;5.17;;;;;;;9.08;100.00;101767.19;5093229;28;20031;-81
2023/04/29 06:59:03;;;;;;;9.07;4.90;;;;;;;9.14;100.00;101770.66;5082354;28;20522;-86
2023/04/29 07:01:28;;;;;;;8.57;4.65;;;;;;;9.21;100.00;101775.03;5072718;28;20066;-85
2023/04/29 07:03:54;;;;;;;13.17;6.37;;;;;;;9.23;100.00;101776.75;5071989;28;20025;-86
2023/04/29 07:06:19;;;;;;;12.40;5.90;;;;;;;9.29;100.00;101788.88;5073932;28;20043;-85
2023/04/29 07:08:44;;;;;;;11.97;5.57;;;;;;;9.33;100.00;101792.34;5074141;28;20095;-86
2023/04/29 07:11:10;;;;;;;11.87;5.70;;;;;;;9.32;100.00;101788.91;5073045;28;20017;-85
2023/04/29 07:13:35;;;;;;;10.97;5.17;;;;;;;9.33;100.00;101792.34;5073579;28;20032;-86
2023/04/29 07:16:00;;;;;;;9.53;5.03;;;;;;;9.38;100.00;101801.88;5073491;28;20523;-86
2023/04/29 07:18:25;;;;;;;11.43;5.40;;;;;;;9.38;100.00;101804.47;5073955;28;20020;-86
2023/04/29 07:20:51;;;;;;;23.00;12.70;;;;;;;9.32;100.00;101803.56;5073794;28;20480;-85
2023/04/29 07:23:17;;;;;;;22.20;12.20;;;;;;;9.22;100.00;101798.34;5073436;28;20034;-86
2023/04/29 07:25:45;;;;;;;19.93;10.80;;;;;;;9.23;100.00;101802.66;5072533;28;20082;-86
2023/04/29 07:28:10;;;;;;;18.70;9.35;;;;;;;9.22;100.00;101802.66;5073640;28;20024;-85
2023/04/29 07:30:36;;;;;;;20.30;10.27;;;;;;;9.23;100.00;101813.03;5084143;28;20022;-86
2023/04/29 07:33:03;;;;;;;18.77;8.80;;;;;;;9.21;100.00;101809.56;5093448;28;20047;-86
2023/04/29 07:35:28;;;;;;;16.48;8.10;;;;;;;9.31;100.00;101818.25;5093396;28;20020;-86
2023/04/29 07:37:54;;;;;;;14.47;7.37;;;;;;;9.40;100.00;101820.03;5092930;28;20039;-86
2023/04/29 07:40:20;;;;;;;13.02;6.35;;;;;;;9.48;100.00;101820.03;5093354;28;20099;-87
2023/04/29 07:42:45;;;;;;;19.80;10.17;;;;;;;9.51;100.00;101826.13;5093488;28;20030;-86
2023/04/29 07:45:12;;;;;;;18.37;9.60;;;;;;;9.54;100.00;101820.09;5090843;28;20047;-87
2023/04/29 07:47:37;;;;;;;21.73;11.77;;;;;;;9.56;100.00;101827.00;5093258;28;20516;-87
2023/04/29 07:50:04;;;;;;;20.60;11.07;;;;;;;9.64;100.00;101829.63;5093557;28;20055;-87
2023/04/29 07:52:29;;;;;;;22.05;12.30;;;;;;;9.66;100.00;101824.44;5081459;28;20376;-85
2023/04/29 07:54:55;;;;;;;19.53;11.10;;;;;;;9.72;100.00;101822.75;5072608;28;20031;-85
2023/04/29 07:57:20;;;;;;;20.13;11.23;;;;;;;9.82;100.00;101833.16;5072165;28;20033;-82
2023/04/29 07:59:45;;;;;;;18.23;9.07;;;;;;;9.92;100.00;101831.47;5072603;28;20020;-88
2023/04/29 08:02:11;;;;;;;17.20;8.70;;;;;;;10.00;100.00;101838.44;5072937;28;20043;-88
2023/04/29 08:04:39;;;;;;;20.77;10.37;;;;;;;10.02;99.45;101835.81;5073238;28;20021;-87
2023/04/29 08:07:05;;;;;;;20.42;10.63;;;;;;;10.06;98.84;101840.16;5077044;28;20104;-87
2023/04/29 08:09:30;;;;;;;22.23;13.33;;;;;;;10.00;94.51;101840.13;5093320;28;20047;-88
2023/04/29 08:11:55;;;;;;;20.50;11.87;;;;;;;10.01;97.41;101840.16;5093138;28;20067;-87
2023/04/29 08:14:20;;;;;;;20.57;12.17;;;;;;;10.07;96.04;101841.91;5092542;28;20020;-87
2023/04/29 08:16:46;;;;;;;19.57;10.37;;;;;;;10.15;97.33;101849.69;5093559;28;20047;-87
2023/04/29 08:19:11;;;;;;;19.73;10.60;;;;;;;10.18;95.67;101857.47;5093202;28;20524;-88
2023/04/29 08:21:37;;;;;;;22.10;13.33;;;;;;;10.13;93.68;101852.28;5092619;28;20024;-87
2023/04/29 08:24:02;;;;;;;22.33;12.60;;;;;;;10.12;94.62;101860.06;5092941;28;20028;-88
2023/04/29 08:26:27;;;;;;;20.30;11.93;;;;;;;10.15;95.78;101849.69;5092635;28;20032;-87
2023/04/29 08:28:53;;;;;;;21.03;11.17;;;;;;;10.24;94.54;101857.50;5092627;28;20065;-86
2023/04/29 08:31:19;;;;;;;21.67;12.03;;;;;;;10.33;93.52;101852.34;5092975;28;20042;-87
2023/04/29 08:33:45;;;;;;;18.88;10.57;;;;;;;10.45;94.51;101859.28;5093100;28;20028;-87
2023/04/29 08:36:10;;;;;;;18.47;9.70;;;;;;;10.65;95.13;101861.94;5078299;28;20071;-87
2023/04/29 08:38:36;;;;;;;19.40;11.23;;;;;;;10.80;89.44;101860.22;5072430;28;20509;-86
2023/04/29 08:41:01;;;;;;;20.10;11.33;;;;;;;10.88;88.76;101868.84;5072685;28;20453;-88
2023/04/29 08:43:28;;;;;;;20.73;11.90;;;;;;;10.97;91.85;101861.06;5073882;28;20032;-92
2023/04/29 08:45:56;;;;;;;18.58;10.00;;;;;;;11.17;92.54;101865.34;5073547;28;20414;-87
2023/04/29 08:48:25;;;;;;;18.60;9.70;;;;;;;11.37;91.68;101872.28;5072392;28;20102;-87
2023/04/29 08:51:01;;;;;;;19.50;10.10;;;;;;;11.44;90.59;101873.97;5072423;28;20029;-88
2023/04/29 08:53:26;;;;;;;18.67;10.00;;;;;;;11.41;90.19;101864.47;5072371;28;20582;-86
2023/04/29 08:55:53;;;;;;;18.93;10.03;;;;;;;11.51;89.36;101877.44;5072251;28;20048;-86
2023/04/29 08:58:27;;;;;;;;;;;;;;;11.47;89.48;101876.59;5073249;28;20107;-87
2023/04/29 09:00:52;;;;;;;19.67;10.65;;;;;;;11.39;90.20;101870.50;5072961;28;19919;-87
2023/04/29 09:03:47;;;;;;;22.10;12.40;;;;;;;11.24;89.55;101882.69;5072167;28;20025;-87
2023/04/29 09:06:14;;;;;;;22.45;13.57;;;;;;;10.99;88.28;101867.97;5073295;28;20480;-85
2023/04/29 09:08:41;;;;;;;20.70;11.45;;;;;;;10.98;88.42;101877.50;5075617;28;20031;-89
2023/04/29 09:11:09;;;;;;;19.33;10.68;;;;;;;10.97;90.00;101878.38;5076951;28;20032;-88
2023/04/29 09:13:37;;;;;;;21.08;11.70;;;;;;;11.06;88.67;101875.78;5084898;28;20020;-88
2023/04/29 09:16:02;;;;;;;20.30;11.25;;;;;;;11.19;89.06;101878.38;5096743;28;20032;-88
2023/04/29 09:18:50;;;;;;;19.77;10.73;;;;;;;11.38;89.19;101892.19;5091097;28;20365;-90
2023/04/29 09:21:24;;;;;;;20.67;11.75;;;;;;;11.62;87.06;101886.06;5079068;28;20372;-89
2023/04/29 09:24:00;;;;;;;20.42;10.88;;;;;;;11.95;86.22;101894.63;5077030;28;20089;-90
2023/04/29 09:26:26;;;;;;;20.80;11.13;;;;;;;12.20;82.40;101884.13;5076636;28;20036;-90
2023/04/29 09:29:12;;;;;;;19.70;10.67;;;;;;;12.41;83.85;101883.13;5076917;28;20032;-89
2023/04/29 09:31:38;;;;;;;;;;;;;;;12.50;79.47;101884.81;5076657;28;20032;-90
2023/04/29 09:34:04;;;;;;;18.80;10.10;;;;;;;12.54;81.41;101881.31;5076691;28;20270;-89
2023/04/29 09:36:43;;;;;;;18.70;9.65;;;;;;;12.70;83.35;101884.69;5076537;28;20077;-89
2023/04/29 09:39:10;;;;;;;19.67;10.00;;;;;;;12.73;79.79;101870.75;5068122;28;20029;-89
2023/04/29 09:41:51;;;;;;;18.40;9.43;;;;;;;12.73;79.66;101886.41;5076156;28;20475;-88
2023/04/29 09:44:16;;;;;;;15.10;7.97;;;;;;;12.73;81.08;101882.03;5071729;28;20485;-88
2023/04/29 09:46:58;;;;;;;14.57;7.40;;;;;;;12.79;81.72;101894.16;5079886;28;20027;-87
2023/04/29 09:49:28;;;;;;;16.50;8.48;;;;;;;12.80;80.03;101888.94;5094454;28;20051;-88
2023/04/29 09:51:58;;;;;;;17.02;8.38;;;;;;;13.01;75.82;101887.03;5093612;28;20024;-87
2023/04/29 09:54:35;;;;;;;18.52;8.95;;;;;;;13.12;75.33;101898.22;5094665;28;20024;-87
2023/04/29 09:57:08;;;;;;;17.58;8.50;;;;;;;13.07;76.79;101901.75;5093944;28;20032;-87
2023/04/29 09:59:46;;;;;;;17.10;8.45;;;;;;;12.86;73.95;101894.97;5092341;28;20031;-87
2023/04/29 10:02:22;;;;;;;15.32;7.75;;;;;;;12.83;77.84;101903.69;5080525;28;20024;-87
2023/04/29 10:04:57;;;;;;;;;;;;;;;12.84;77.73;101905.41;5074118;28;20060;-89
2023/04/29 10:07:52;;;;;;;15.07;7.70;;;;;;;12.95;78.39;101900.09;5074411;28;19957;-89
2023/04/29 10:10:17;;;;;;;15.63;8.05;;;;;;;13.02;76.26;101903.50;5057437;28;20058;-89
2023/04/29 10:12:59;;;;;;;15.30;7.73;;;;;;;13.05;76.85;101914.81;5074180;28;20031;-87
2023/04/29 10:15:48;;;;;;;16.42;7.82;;;;;;;12.92;76.28;101906.19;5074381;28;20029;-87
2023/04/29 10:18:22;;;;;;;15.35;7.55;;;;;;;12.94;76.86;101922.69;5074289;28;20027;-89
2023/04/29 10:20:47;;;;;;;14.07;6.88;;;;;;;12.94;75.19;101919.25;5074529;28;20452;-89
2023/04/29 10:23:14;;;;;;;11.67;6.13;;;;;;;12.97;76.31;101913.97;5074912;28;20031;-88
2023/04/29 10:25:41;;;;;;;;;;;;;;;13.11;76.05;101919.94;5075749;28;20020;-88
2023/04/29 10:28:13;;;;;;;9.73;5.10;;;;;;;13.17;78.79;101918.19;5080719;28;19920;-88
2023/04/29 10:30:41;;;;;;;16.95;7.60;;;;;;;13.16;72.43;101932.94;5094434;28;20020;-88
2023/04/29 10:33:10;;;;;;;15.40;7.60;;;;;;;13.18;75.74;101925.09;5094638;28;20138;-87
2023/04/29 10:35:54;;;;;;;15.07;7.65;;;;;;;13.19;71.56;101916.41;5093543;28;20035;-87
2023/04/29 10:38:40;;;;;;;14.52;7.10;;;;;;;13.28;73.17;101925.00;5094341;28;20149;-88
2023/04/29 10:41:15;;;;;;;12.48;5.95;;;;;;;13.34;75.44;101924.09;5094244;28;20103;-88
2023/04/29 10:43:41;;;;;;;9.27;5.10;;;;;;;13.44;76.90;101930.97;4939801;28;4381890;-87
2023/04/29 10:46:27;;;;;;;10.10;5.63;;;;;;;13.47;73.35;101924.00;5093361;28;20358;-88
2023/04/29 10:48:59;;;;;;;12.93;6.22;;;;;;;13.48;73.72;101923.97;5081944;28;20036;-87
2023/04/29 10:51:38;;;;;;;15.43;7.72;;;;;;;13.44;69.80;101936.19;5094711;28;20032;-87
2023/04/29 10:54:13;;;;;;;14.40;7.30;;;;;;;13.47;72.73;101926.63;5094524;28;20042;-86
2023/04/29 10:56:49;;;;;;;14.25;7.10;;;;;;;13.51;73.55;101923.09;5092206;28;20086;-86
2023/04/29 10:59:19;;;;;;;14.77;7.38;;;;;;;13.53;73.29;101930.03;5094806;28;20024;-86
2023/04/29 11:01:52;;;;;;;12.82;6.40;;;;;;;13.67;72.72;101939.47;5094708;28;20024;-90
2023/04/29 11:04:21;;;;;;;11.55;6.05;;;;;;;13.67;73.43;101940.31;5094444;28;20059;-87
2023/04/29 11:06:57;;;;;;;12.32;6.28;;;;;;;13.65;73.29;101936.00;5094194;28;20028;-86
2023/04/29 11:09:23;;;;;;;13.57;6.88;;;;;;;13.58;69.61;101945.63;5090309;28;20024;-86
2023/04/29 11:11:52;;;;;;;15.97;7.40;;;;;;;13.47;71.53;101943.13;5073736;28;20041;-88
2023/04/29 11:14:36;;;;;;;11.90;6.10;;;;;;;13.44;73.82;101949.22;5074336;28;20093;-87
2023/04/29 11:17:04;;;;;;;16.27;8.02;;;;;;;13.20;71.68;101944.19;5074330;28;20432;-87
2023/04/29 11:19:32;;;;;;;16.77;8.05;;;;;;;13.03;73.69;101936.53;5074117;28;20055;-86